createdAt,value
2022-10-06T00:00:01.207Z,12.10
2022-10-06T00:02:31.332Z,12.10
2022-10-06T00:05:01.066Z,12.90
2022-10-06T00:07:30.791Z,12.90
2022-10-06T00:10:00.686Z,12.80
2022-10-06T00:12:30.469Z,13.40
2022-10-06T00:15:02.773Z,13.90
2022-10-06T00:17:32.806Z,14.00
2022-10-06T00:20:02.579Z,15.00
2022-10-06T00:22:36.737Z,15.80
2022-10-06T00:25:08.067Z,15.60
2022-10-06T00:27:38.724Z,15.70
2022-10-06T00:30:13.536Z,16.50
2022-10-06T00:32:43.618Z,15.80
2022-10-06T00:35:13.354Z,16.10
2022-10-06T00:37:43.070Z,17.50
2022-10-06T00:40:13.588Z,17.50
2022-10-06T00:42:55.513Z,18.90
2022-10-06T00:45:36.251Z,19.70
2022-10-06T00:48:11.211Z,20.50
2022-10-06T00:50:41.575Z,21.00
2022-10-06T00:53:12.247Z,21.70
2022-10-06T00:55:42.501Z,22.40
2022-10-06T00:58:13.103Z,23.60
2022-10-06T01:00:47.075Z,23.40
2022-10-06T01:03:21.988Z,23.40
2022-10-06T01:05:53.812Z,24.20
2022-10-06T01:08:26.070Z,24.20
2022-10-06T01:10:56.391Z,24.10
2022-10-06T01:13:27.390Z,23.40
2022-10-06T01:16:06.445Z,22.90
2022-10-06T01:18:37.705Z,22.00
2022-10-06T01:21:13.087Z,21.90
2022-10-06T01:23:45.764Z,20.70
2022-10-06T01:26:17.347Z,19.20
2022-10-06T01:28:47.529Z,17.80
2022-10-06T01:31:17.664Z,16.70
2022-10-06T01:33:47.487Z,16.40
2022-10-06T01:36:17.249Z,17.30
2022-10-06T01:38:49.859Z,17.30
2022-10-06T01:41:19.659Z,17.90
2022-10-06T01:43:49.388Z,16.70
2022-10-06T01:46:19.282Z,16.20
2022-10-06T01:48:49.043Z,15.90
2022-10-06T01:51:18.842Z,15.60
2022-10-06T01:53:51.186Z,15.80
2022-10-06T01:56:22.044Z,15.90
2022-10-06T01:58:52.052Z,16.30
2022-10-06T02:01:21.840Z,15.50
2022-10-06T02:03:51.576Z,14.40
2022-10-06T02:06:21.485Z,12.90
2022-10-06T02:08:53.864Z,11.40
2022-10-06T02:11:23.863Z,11.40
2022-10-06T02:13:53.630Z,10.90
2022-10-06T02:16:23.888Z,10.80
2022-10-06T02:18:54.674Z,10.40
2022-10-06T02:21:25.937Z,10.30
2022-10-06T02:23:58.257Z,10.50
2022-10-06T02:26:28.010Z,11.60
2022-10-06T02:28:57.778Z,12.70
2022-10-06T02:31:27.906Z,12.00
2022-10-06T02:33:58.905Z,13.80
2022-10-06T02:36:28.782Z,14.50
2022-10-06T02:39:01.084Z,14.50
2022-10-06T02:41:30.981Z,15.20
2022-10-06T02:44:00.729Z,15.20
2022-10-06T02:46:31.503Z,16.80
2022-10-06T02:49:01.287Z,17.00
2022-10-06T02:51:33.891Z,16.30
2022-10-06T02:54:06.300Z,16.30
2022-10-06T02:56:37.945Z,17.20
2022-10-06T02:59:07.761Z,17.20
2022-10-06T03:01:37.820Z,17.20
2022-10-06T03:04:07.631Z,17.20
2022-10-06T03:06:37.356Z,16.80
2022-10-06T03:09:11.020Z,16.50
2022-10-06T03:11:43.117Z,15.90
2022-10-06T03:14:14.114Z,15.40
2022-10-06T03:16:46.509Z,16.10
2022-10-06T03:19:16.827Z,16.60
2022-10-06T03:21:47.156Z,17.20
2022-10-06T03:24:19.727Z,18.50
2022-10-06T03:26:50.439Z,19.40
2022-10-06T03:29:20.198Z,19.50
2022-10-06T03:31:49.987Z,20.70
2022-10-06T03:34:19.737Z,21.50
2022-10-06T03:36:49.476Z,22.00
2022-10-06T03:39:21.954Z,22.80
2022-10-06T03:41:51.747Z,24.10
2022-10-06T03:44:21.987Z,22.90
2022-10-06T03:46:51.793Z,21.70
2022-10-06T03:49:21.588Z,21.50
2022-10-06T03:51:51.327Z,20.60
2022-10-06T03:54:23.644Z,19.30
2022-10-06T03:56:53.431Z,19.30
2022-10-06T03:59:23.177Z,17.70
2022-10-06T04:01:53.129Z,17.70
2022-10-06T04:04:23.085Z,16.30
2022-10-06T04:06:52.801Z,15.20
2022-10-06T04:09:25.249Z,15.60
2022-10-06T04:11:55.076Z,15.30
2022-10-06T04:14:24.786Z,16.00
2022-10-06T04:16:54.493Z,15.70
2022-10-06T04:19:24.908Z,16.00
2022-10-06T04:21:54.664Z,16.50
2022-10-06T04:24:27.018Z,17.70
2022-10-06T04:27:16.799Z,18.10
2022-10-06T04:29:46.543Z,19.00
2022-10-06T04:32:16.938Z,19.90
2022-10-06T04:34:46.653Z,20.40
2022-10-06T04:37:16.349Z,20.70
2022-10-06T04:39:48.641Z,21.20
2022-10-06T04:42:18.690Z,22.00
2022-10-06T04:44:48.436Z,21.90
2022-10-06T04:47:18.164Z,22.60
2022-10-06T04:49:47.881Z,23.30
2022-10-06T04:52:17.619Z,23.80
2022-10-06T04:54:49.936Z,24.20
2022-10-06T04:57:19.703Z,25.10
2022-10-06T05:00:07.798Z,25.20
2022-10-06T05:02:38.942Z,25.30
2022-10-06T05:05:09.663Z,25.80
2022-10-06T05:07:39.421Z,26.20
2022-10-06T05:10:12.069Z,25.90
2022-10-06T05:12:41.987Z,26.50
2022-10-06T05:15:12.934Z,26.50
2022-10-06T05:17:42.677Z,26.00
2022-10-06T05:20:13.645Z,25.90
2022-10-06T05:22:43.382Z,25.90
2022-10-06T05:25:15.734Z,26.30
2022-10-06T05:27:45.471Z,26.00
2022-10-06T05:30:15.538Z,25.30
2022-10-06T05:32:50.451Z,25.40
2022-10-06T05:35:21.325Z,25.40
2022-10-06T05:37:51.089Z,25.50
2022-10-06T05:40:25.005Z,25.50
2022-10-06T05:42:57.895Z,25.90
2022-10-06T05:45:27.630Z,26.20
2022-10-06T05:47:57.597Z,26.30
2022-10-06T05:50:27.352Z,26.40
2022-10-06T05:52:57.526Z,26.40
2022-10-06T05:55:31.914Z,26.20
2022-10-06T05:58:01.460Z,26.40
2022-10-06T06:00:31.373Z,26.10
2022-10-06T06:03:02.341Z,26.20
2022-10-06T06:05:32.143Z,25.80
2022-10-06T06:08:01.881Z,26.10
2022-10-06T06:10:35.117Z,26.00
2022-10-06T06:13:05.038Z,25.90
2022-10-06T06:15:47.310Z,26.40
2022-10-06T06:18:17.067Z,26.10
2022-10-06T06:20:46.813Z,26.20
2022-10-06T06:23:16.567Z,25.70
2022-10-06T06:26:02.519Z,25.80
2022-10-06T06:28:34.057Z,25.60
2022-10-06T06:31:09.205Z,25.00
2022-10-06T06:33:40.417Z,24.80
2022-10-06T06:36:15.749Z,24.80
2022-10-06T06:38:45.952Z,24.80
2022-10-06T06:41:20.446Z,24.60
2022-10-06T06:43:50.900Z,25.00
2022-10-06T06:46:24.313Z,25.10
2022-10-06T06:48:55.278Z,25.70
2022-10-06T06:51:25.627Z,25.70
2022-10-06T06:53:55.910Z,25.50
2022-10-06T06:56:28.420Z,25.90
2022-10-06T06:58:58.291Z,25.90
2022-10-06T07:01:28.178Z,25.80
2022-10-06T07:03:59.769Z,25.90
2022-10-06T07:06:31.750Z,26.30
2022-10-06T07:09:02.768Z,25.80
2022-10-06T07:11:36.722Z,26.10
2022-10-06T07:14:08.784Z,26.20
2022-10-06T07:16:51.306Z,25.80
2022-10-06T07:19:37.319Z,25.80
2022-10-06T07:22:29.182Z,25.70
2022-10-06T07:25:14.991Z,25.80
2022-10-06T07:27:51.789Z,25.60
2022-10-06T07:30:24.160Z,24.80
2022-10-06T07:32:54.779Z,25.60
2022-10-06T07:35:26.218Z,25.00
2022-10-06T07:37:58.062Z,24.30
2022-10-06T07:40:27.937Z,24.20
2022-10-06T07:43:00.232Z,25.00
2022-10-06T07:45:45.560Z,22.60
2022-10-06T07:48:18.127Z,21.50
2022-10-06T07:50:49.156Z,18.90
2022-10-06T07:53:19.751Z,17.80
2022-10-06T07:55:50.213Z,16.90
2022-10-06T07:58:24.284Z,16.10
2022-10-06T08:00:55.323Z,13.90
2022-10-06T08:03:25.330Z,13.50
2022-10-06T08:06:01.852Z,13.10
2022-10-06T08:08:36.960Z,12.00
2022-10-06T08:11:09.005Z,12.20
2022-10-06T08:13:43.463Z,11.70
2022-10-06T08:16:16.829Z,11.80
2022-10-06T08:18:51.046Z,11.80
2022-10-06T08:21:22.862Z,11.90
2022-10-06T08:23:54.048Z,11.80
2022-10-06T08:26:25.358Z,13.40
2022-10-06T08:29:00.381Z,12.50
2022-10-06T08:31:30.338Z,12.60
2022-10-06T08:34:01.426Z,12.40
2022-10-06T08:36:32.782Z,12.40
2022-10-06T08:39:02.755Z,11.90
2022-10-06T08:41:43.148Z,8.50
2022-10-06T08:44:30.423Z,9.50
2022-10-06T08:47:03.907Z,8.90
2022-10-06T08:49:39.895Z,6.60
2022-10-06T08:52:22.366Z,7.50
2022-10-06T08:54:58.934Z,6.70
2022-10-06T08:57:35.424Z,4.50
2022-10-06T09:00:18.163Z,3.60
2022-10-06T09:02:53.439Z,3.30
2022-10-06T09:05:28.209Z,1.60
2022-10-06T09:08:08.184Z,2.40
2022-10-06T09:10:46.188Z,2.00
2022-10-06T09:13:22.045Z,2.90
2022-10-06T09:15:59.301Z,1.10
2022-10-06T09:19:03.383Z,1.00
2022-10-06T09:21:32.932Z,1.00
2022-10-06T09:24:08.410Z,1.00
2022-10-06T09:26:39.096Z,1.00
2022-10-06T09:29:08.847Z,1.00
2022-10-06T09:31:44.863Z,1.00
2022-10-06T09:34:24.479Z,1.00
2022-10-06T09:37:03.256Z,1.00
2022-10-06T09:39:36.903Z,1.00
2022-10-06T09:42:10.196Z,1.00
2022-10-06T09:44:50.874Z,1.00
2022-10-06T09:47:39.085Z,1.00
2022-10-06T09:50:20.493Z,1.00
2022-10-06T09:53:16.454Z,1.00
2022-10-06T09:55:55.279Z,1.00
2022-10-06T09:58:34.212Z,1.00
2022-10-06T10:01:06.084Z,1.00
2022-10-06T10:06:42.340Z,1.00
2022-10-06T10:09:27.679Z,1.00
2022-10-06T10:12:28.082Z,1.00
2022-10-06T10:15:01.333Z,1.00
2022-10-06T10:17:45.609Z,1.00
2022-10-06T10:20:34.430Z,1.00
2022-10-06T10:23:08.525Z,1.00
2022-10-06T10:25:55.426Z,1.00
2022-10-06T10:28:38.011Z,1.00
2022-10-06T10:31:14.652Z,1.00
2022-10-06T10:33:59.227Z,1.00
2022-10-06T10:36:50.833Z,1.00
2022-10-06T10:39:28.605Z,1.00
2022-10-06T10:42:02.899Z,1.00
2022-10-06T10:44:37.327Z,1.00
2022-10-06T10:47:19.348Z,1.00
2022-10-06T10:49:54.897Z,1.00
2022-10-06T10:52:31.338Z,1.00
2022-10-06T10:55:14.309Z,1.00
2022-10-06T10:57:46.015Z,1.00
2022-10-06T11:00:22.823Z,1.00
2022-10-06T11:02:55.331Z,1.00
2022-10-06T11:05:40.224Z,1.00
2022-10-06T11:08:19.065Z,1.00
2022-10-06T11:10:53.047Z,1.00
2022-10-06T11:13:29.785Z,1.00
2022-10-06T11:16:14.597Z,1.00
2022-10-06T11:22:01.062Z,1.00
2022-10-06T11:24:45.244Z,1.00
2022-10-06T11:27:34.182Z,1.00
2022-10-06T11:30:08.705Z,1.00
2022-10-06T11:32:48.088Z,1.00
2022-10-06T11:35:25.879Z,1.00
2022-10-06T11:38:02.696Z,1.00
2022-10-06T11:40:51.785Z,1.00
2022-10-06T11:43:34.252Z,1.00
2022-10-06T11:46:10.485Z,1.00
2022-10-06T11:48:40.602Z,1.00
2022-10-06T11:51:32.334Z,1.00
2022-10-06T11:54:02.396Z,1.00
2022-10-06T11:56:43.758Z,1.00
2022-10-06T11:59:31.851Z,1.00
2022-10-06T12:02:03.525Z,1.00
2022-10-06T12:04:33.357Z,1.00
2022-10-06T12:07:07.624Z,1.00
2022-10-06T12:09:54.585Z,1.00
2022-10-06T12:13:21.160Z,1.00
2022-10-06T12:19:25.145Z,1.00
2022-10-06T12:22:03.552Z,1.00
2022-10-06T12:24:42.516Z,1.00
2022-10-06T12:27:33.699Z,1.00
2022-10-06T12:30:19.929Z,1.00
2022-10-06T12:32:55.268Z,1.00
2022-10-06T12:35:31.634Z,1.00
2022-10-06T12:38:04.942Z,1.00
2022-10-06T12:40:49.800Z,1.00
2022-10-06T12:43:46.424Z,1.00
2022-10-06T12:46:24.105Z,1.00
2022-10-06T12:49:07.097Z,1.00
2022-10-06T12:51:39.048Z,1.00
2022-10-06T12:54:19.479Z,1.00
2022-10-06T12:57:00.121Z,1.00
2022-10-06T12:59:32.073Z,1.00
2022-10-06T13:02:10.384Z,1.00
2022-10-06T13:04:43.615Z,1.00
2022-10-06T13:07:18.880Z,1.00
2022-10-06T13:09:50.556Z,1.00
2022-10-06T13:12:26.167Z,1.00
2022-10-06T13:15:18.602Z,1.00
2022-10-06T13:17:54.035Z,1.00
2022-10-06T13:20:40.114Z,1.00
2022-10-06T13:23:25.676Z,1.00
2022-10-06T13:26:00.503Z,1.00
2022-10-06T13:28:34.265Z,1.00
2022-10-06T13:31:12.597Z,1.00
2022-10-06T13:33:48.890Z,1.00
2022-10-06T13:36:19.766Z,1.00
2022-10-06T13:38:49.606Z,1.00
2022-10-06T13:41:29.760Z,1.00
2022-10-06T13:44:03.785Z,1.00
2022-10-06T13:46:40.575Z,1.00
2022-10-06T13:49:22.758Z,1.00
2022-10-06T13:51:54.521Z,1.00
2022-10-06T13:54:29.674Z,1.00
2022-10-06T13:57:00.180Z,1.00
2022-10-06T13:59:34.256Z,1.00
2022-10-06T14:02:26.072Z,1.00
2022-10-06T14:05:29.420Z,1.00
2022-10-06T14:08:02.292Z,1.00
2022-10-06T14:10:35.513Z,1.00
2022-10-06T14:13:10.815Z,1.00
2022-10-06T14:15:49.413Z,1.00
2022-10-06T14:18:23.433Z,1.00
2022-10-06T14:20:57.157Z,1.00
2022-10-06T14:23:52.417Z,1.00
2022-10-06T14:26:27.011Z,1.00
2022-10-06T14:28:57.309Z,1.00
2022-10-06T14:31:29.105Z,1.00
2022-10-06T14:33:59.672Z,1.00
2022-10-06T14:36:34.462Z,1.00
2022-10-06T14:39:04.854Z,1.00
2022-10-06T14:41:34.800Z,1.00
2022-10-06T14:44:09.022Z,1.00
2022-10-06T14:46:39.761Z,1.00
2022-10-06T14:49:11.095Z,1.00
2022-10-06T14:51:45.273Z,1.00
2022-10-06T14:54:16.168Z,1.00
2022-10-06T14:56:46.268Z,1.00
2022-10-06T14:59:17.978Z,1.00
2022-10-06T15:01:48.746Z,1.00
2022-10-06T15:04:24.222Z,1.00
2022-10-06T15:07:09.103Z,1.00
2022-10-06T15:09:39.041Z,1.00
2022-10-06T15:12:08.945Z,1.00
2022-10-06T15:14:40.027Z,1.00
2022-10-06T15:17:09.993Z,1.00
2022-10-06T15:19:40.362Z,1.00
2022-10-06T15:22:12.687Z,1.00
2022-10-06T15:24:43.212Z,1.00
2022-10-06T15:27:25.515Z,1.00
2022-10-06T15:29:57.429Z,1.00
2022-10-06T15:32:27.192Z,1.00
2022-10-06T15:34:57.051Z,1.00
2022-10-06T15:37:29.485Z,1.00
2022-10-06T15:39:59.292Z,1.00
2022-10-06T15:42:29.172Z,1.00
2022-10-06T15:44:59.335Z,1.00
2022-10-06T15:47:30.687Z,1.00
2022-10-06T15:50:00.460Z,1.00
2022-10-06T15:52:33.925Z,1.00
2022-10-06T15:55:03.735Z,1.00
2022-10-06T15:57:33.518Z,1.00
2022-10-06T16:00:03.369Z,1.00
2022-10-06T16:02:35.725Z,1.00
2022-10-06T16:05:24.120Z,1.00
2022-10-06T16:07:56.440Z,1.00
2022-10-06T16:10:26.241Z,1.00
2022-10-06T16:12:55.977Z,1.00
2022-10-06T16:15:25.748Z,1.00
2022-10-06T16:17:55.548Z,1.00
2022-10-06T16:20:25.393Z,1.00
2022-10-06T16:22:57.778Z,1.00
2022-10-06T16:25:27.648Z,1.00
2022-10-06T16:27:57.480Z,1.00
2022-10-06T16:30:27.405Z,1.00
2022-10-06T16:32:57.144Z,1.00
2022-10-06T16:35:26.916Z,1.00
2022-10-06T16:37:59.241Z,1.00
2022-10-06T16:40:29.291Z,1.00
2022-10-06T16:42:59.082Z,1.00
2022-10-06T16:45:28.921Z,1.00
2022-10-06T16:47:58.664Z,1.00
2022-10-06T16:50:28.384Z,1.00
2022-10-06T16:53:00.766Z,1.00
2022-10-06T16:55:30.529Z,1.00
2022-10-06T16:58:00.235Z,1.00
2022-10-06T17:00:30.018Z,1.00
2022-10-06T17:02:59.759Z,1.00
2022-10-06T17:05:29.684Z,1.00
2022-10-06T17:08:02.060Z,1.00
2022-10-06T17:10:31.828Z,1.00
2022-10-06T17:13:01.570Z,1.00
2022-10-06T17:15:33.543Z,1.00
2022-10-06T17:18:03.495Z,1.00
2022-10-06T17:20:33.221Z,1.00
2022-10-06T17:23:05.517Z,1.00
2022-10-06T17:25:35.842Z,1.00
2022-10-06T17:28:05.609Z,1.00
2022-10-06T17:30:35.422Z,1.00
2022-10-06T17:33:05.157Z,1.00
2022-10-06T17:35:39.182Z,1.00
2022-10-06T17:38:11.891Z,1.00
2022-10-06T17:40:46.044Z,1.00
2022-10-06T17:43:16.273Z,1.00
2022-10-06T17:45:47.752Z,1.00
2022-10-06T17:48:17.511Z,1.00
2022-10-06T17:50:59.690Z,1.00
2022-10-06T17:53:32.053Z,1.00
2022-10-06T17:56:07.135Z,1.00
2022-10-06T17:58:37.918Z,1.00
2022-10-06T18:01:09.938Z,1.00
2022-10-06T18:03:41.578Z,1.00
2022-10-06T18:06:14.863Z,1.00
2022-10-06T18:08:49.015Z,1.00
2022-10-06T18:11:32.790Z,1.00
2022-10-06T18:14:04.234Z,1.00
2022-10-06T18:16:39.154Z,1.00
2022-10-06T18:19:11.381Z,1.00
2022-10-06T18:21:42.741Z,1.00
2022-10-06T18:24:17.917Z,1.00
2022-10-06T18:26:50.731Z,1.00
2022-10-06T18:29:22.217Z,1.00
2022-10-06T18:31:53.809Z,1.00
2022-10-06T18:37:13.635Z,1.00
2022-10-06T18:39:45.994Z,1.00
2022-10-06T18:42:15.765Z,1.00
2022-10-06T18:44:57.970Z,1.00
2022-10-06T18:47:40.477Z,1.00
2022-10-06T18:50:11.165Z,1.00
2022-10-06T18:52:43.569Z,1.00
2022-10-06T18:55:17.110Z,1.00
2022-10-06T18:57:47.214Z,1.00
2022-10-06T19:00:17.544Z,1.00
2022-10-06T19:02:48.605Z,1.00
2022-10-06T19:05:19.085Z,1.00
2022-10-06T19:07:48.822Z,1.00
2022-10-06T19:10:21.175Z,1.00
2022-10-06T19:12:50.993Z,1.00
2022-10-06T19:15:21.552Z,1.00
2022-10-06T19:17:51.649Z,1.00
2022-10-06T19:20:22.405Z,1.00
2022-10-06T19:22:52.223Z,1.00
2022-10-06T19:25:24.968Z,1.00
2022-10-06T19:27:54.874Z,1.00
2022-10-06T19:30:24.619Z,1.00
2022-10-06T19:32:54.385Z,1.00
2022-10-06T19:35:24.111Z,1.00
2022-10-06T19:37:54.019Z,1.00
2022-10-06T19:40:26.339Z,1.00
2022-10-06T19:42:54.000Z,1.60
2022-10-06T19:45:23.747Z,2.40
2022-10-06T19:47:53.806Z,4.40
2022-10-06T19:50:23.544Z,3.60
2022-10-06T19:52:54.309Z,2.90
2022-10-06T19:55:28.606Z,3.30
2022-10-06T19:58:00.014Z,4.30
2022-10-06T20:00:31.258Z,4.20
2022-10-06T20:03:00.987Z,4.30
2022-10-06T20:05:30.757Z,4.20
2022-10-06T20:08:00.565Z,4.90
2022-10-06T20:10:32.882Z,4.70
2022-10-06T20:13:02.602Z,4.20
2022-10-06T20:15:32.391Z,4.70
2022-10-06T20:18:02.100Z,6.40
2022-10-06T20:20:31.988Z,6.40
2022-10-06T20:23:01.692Z,8.10
2022-10-06T20:25:34.314Z,8.10
2022-10-06T20:28:08.189Z,9.00
2022-10-06T20:30:39.231Z,10.10
2022-10-06T20:33:09.481Z,11.80
2022-10-06T20:35:39.211Z,12.90
2022-10-06T20:38:09.222Z,13.60
2022-10-06T20:40:49.195Z,13.70
2022-10-06T20:43:18.955Z,14.20
2022-10-06T20:45:48.949Z,14.70
2022-10-06T20:48:18.701Z,15.30
2022-10-06T20:50:48.397Z,16.00
2022-10-06T20:53:18.130Z,17.70
2022-10-06T20:55:56.442Z,17.80
2022-10-06T20:58:26.573Z,17.40
2022-10-06T21:00:56.446Z,18.10
2022-10-06T21:03:26.233Z,17.60
2022-10-06T21:05:55.919Z,17.20
2022-10-06T21:08:25.790Z,17.20
2022-10-06T21:11:01.745Z,17.20
2022-10-06T21:13:32.448Z,17.20
2022-10-06T21:16:02.712Z,17.20
2022-10-06T21:18:33.455Z,17.20
2022-10-06T21:21:07.669Z,16.60
2022-10-06T21:23:39.590Z,17.20
2022-10-06T21:26:15.498Z,17.20
2022-10-06T21:28:45.815Z,17.20
2022-10-06T21:31:17.582Z,17.40
2022-10-06T21:33:50.246Z,17.30
2022-10-06T21:36:22.230Z,17.30
2022-10-06T21:38:53.995Z,17.30
2022-10-06T21:41:31.934Z,16.60
2022-10-06T21:44:03.647Z,16.20
2022-10-06T21:46:34.974Z,16.00
2022-10-06T21:49:06.957Z,15.80
2022-10-06T21:51:36.810Z,16.30
2022-10-06T21:54:07.163Z,16.60
2022-10-06T21:56:39.947Z,15.80
2022-10-06T21:59:10.539Z,15.30
2022-10-06T22:01:41.650Z,16.70
2022-10-06T22:04:12.716Z,15.50
2022-10-06T22:06:43.087Z,14.80
2022-10-06T22:09:17.231Z,14.30
2022-10-06T22:11:49.576Z,14.60
2022-10-06T22:14:20.884Z,15.60
2022-10-06T22:16:50.798Z,17.20
2022-10-06T22:19:20.718Z,17.80
2022-10-06T22:21:51.286Z,18.70
2022-10-06T22:24:22.805Z,19.80
2022-10-06T22:26:55.197Z,19.90
2022-10-06T22:29:27.658Z,20.50
2022-10-06T22:31:58.644Z,21.60
2022-10-06T22:34:29.709Z,20.90
2022-10-06T22:37:00.610Z,21.50
2022-10-06T22:39:30.310Z,20.70
2022-10-06T22:42:02.639Z,21.70
2022-10-06T22:44:32.514Z,21.80
2022-10-06T22:47:02.298Z,22.00
2022-10-06T22:49:32.058Z,21.80
2022-10-06T22:52:01.769Z,21.50
2022-10-06T22:54:32.429Z,22.00
2022-10-06T22:57:05.114Z,22.90
2022-10-06T22:59:34.819Z,23.30
2022-10-06T23:02:04.550Z,22.20
2022-10-06T23:04:34.289Z,23.00
2022-10-06T23:07:04.014Z,23.10
2022-10-06T23:09:33.754Z,23.90
2022-10-06T23:12:06.247Z,23.50
2022-10-06T23:14:35.942Z,23.20
2022-10-06T23:17:05.631Z,23.80
2022-10-06T23:19:35.321Z,23.40
2022-10-06T23:22:05.375Z,23.40
2022-10-06T23:24:35.090Z,23.80
2022-10-06T23:27:07.430Z,23.80
2022-10-06T23:29:37.375Z,23.80
2022-10-06T23:32:07.076Z,23.80
2022-10-06T23:34:36.758Z,23.80
2022-10-06T23:37:06.570Z,23.70
2022-10-06T23:39:36.379Z,23.10
2022-10-06T23:42:09.706Z,23.30
2022-10-06T23:44:40.226Z,23.90
2022-10-06T23:47:10.234Z,23.90
2022-10-06T23:49:41.317Z,23.60
2022-10-06T23:52:11.024Z,23.80
2022-10-06T23:54:40.730Z,25.40
2022-10-06T23:57:13.017Z,24.70
2022-10-06T23:59:42.750Z,24.40
